createdAt,value
2023-01-29T00:01:57.764Z,96083.20
2023-01-29T00:04:25.010Z,96086.60
2023-01-29T00:06:51.684Z,96082.40
2023-01-29T00:09:18.854Z,96081.20
2023-01-29T00:11:45.532Z,96081.80
2023-01-29T00:14:12.095Z,96083.20
2023-01-29T00:16:38.846Z,96081.40
2023-01-29T00:19:05.651Z,96083.40
2023-01-29T00:21:32.477Z,96082.80
2023-01-29T00:23:59.837Z,96088.00
2023-01-29T00:26:27.925Z,96092.60
2023-01-29T00:28:57.335Z,96090.40
2023-01-29T00:31:25.352Z,96093.40
2023-01-29T00:33:53.055Z,96101.20
2023-01-29T00:36:22.121Z,96105.80
2023-01-29T00:38:58.768Z,96106.00
2023-01-29T00:41:50.544Z,96103.00
2023-01-29T00:44:36.605Z,96100.20
2023-01-29T00:47:04.943Z,96099.60
2023-01-29T00:49:31.524Z,96102.80
2023-01-29T00:52:17.201Z,96102.00
2023-01-29T00:54:43.786Z,96099.40
2023-01-29T00:57:10.548Z,96105.60
2023-01-29T00:59:37.743Z,96102.60
2023-01-29T01:02:23.550Z,96105.80
2023-01-29T01:04:50.173Z,96103.00
2023-01-29T01:07:16.993Z,96105.80
2023-01-29T01:10:02.241Z,96099.00
2023-01-29T01:12:29.620Z,96093.20
2023-01-29T01:14:56.235Z,96100.60
2023-01-29T01:17:23.684Z,96101.60
2023-01-29T01:19:50.648Z,96105.20
2023-01-29T01:22:17.822Z,96101.80
2023-01-29T01:24:44.685Z,96109.00
2023-01-29T01:27:13.544Z,96107.60
2023-01-29T01:29:41.046Z,96106.20
2023-01-29T01:32:07.868Z,96108.40
2023-01-29T01:34:34.509Z,96106.20
2023-01-29T01:37:01.481Z,96106.20
2023-01-29T01:39:28.143Z,96112.40
2023-01-29T01:41:55.075Z,96113.00
2023-01-29T01:44:55.911Z,96112.00
2023-01-29T01:47:31.706Z,96109.80
2023-01-29T01:50:08.316Z,96110.20
2023-01-29T01:52:39.277Z,96103.20
2023-01-29T01:55:07.960Z,96106.20
2023-01-29T01:57:34.932Z,96106.00
2023-01-29T02:00:13.556Z,96111.20
2023-01-29T02:03:02.359Z,96109.40
2023-01-29T02:05:51.157Z,96106.20
2023-01-29T02:09:06.721Z,96108.80
2023-01-29T02:11:36.449Z,96110.60
2023-01-29T02:14:03.650Z,96113.60
2023-01-29T02:16:30.457Z,96112.20
2023-01-29T02:18:57.161Z,96109.40
2023-01-29T02:22:10.440Z,96114.80
2023-01-29T02:25:23.351Z,96124.40
2023-01-29T02:28:30.980Z,96118.00
2023-01-29T02:31:25.483Z,96115.40
2023-01-29T02:34:18.296Z,96112.00
2023-01-29T02:36:51.780Z,96108.80
2023-01-29T02:39:37.480Z,96103.60
2023-01-29T02:42:17.627Z,96101.60
2023-01-29T02:44:56.015Z,96100.20
2023-01-29T02:47:50.158Z,96097.60
2023-01-29T02:50:32.200Z,96091.80
2023-01-29T02:53:22.403Z,96084.00
2023-01-29T02:55:57.087Z,96088.00
2023-01-29T02:58:43.074Z,96081.40
2023-01-29T03:01:20.107Z,96082.40
2023-01-29T03:03:54.456Z,96084.40
2023-01-29T03:06:28.319Z,96083.20
2023-01-29T03:09:05.445Z,96083.40
2023-01-29T03:11:41.513Z,96081.40
2023-01-29T03:14:16.948Z,96082.60
2023-01-29T03:16:52.855Z,96081.00
2023-01-29T03:19:37.252Z,96082.00
2023-01-29T03:22:09.993Z,96085.80
2023-01-29T03:25:03.117Z,96079.20
2023-01-29T03:28:05.058Z,96086.00
2023-01-29T03:31:02.401Z,96092.80
2023-01-29T03:33:51.277Z,96091.20
2023-01-29T03:36:38.044Z,96095.60
2023-01-29T03:39:07.680Z,96101.00
2023-01-29T03:41:58.143Z,96093.20
2023-01-29T03:44:40.414Z,96093.20
2023-01-29T03:47:46.379Z,96095.40
2023-01-29T03:51:10.396Z,96090.80
2023-01-29T03:53:49.418Z,96084.20
2023-01-29T03:56:53.081Z,96077.40
2023-01-29T04:00:04.347Z,96072.00
2023-01-29T04:03:08.384Z,96059.60
2023-01-29T04:05:45.017Z,96051.00
2023-01-29T04:08:26.574Z,96052.00
2023-01-29T04:10:58.045Z,96048.40
2023-01-29T04:13:25.221Z,96048.60
2023-01-29T04:15:57.953Z,96050.40
2023-01-29T04:18:39.594Z,96055.00
2023-01-29T04:21:08.664Z,96058.00
2023-01-29T04:23:35.554Z,96056.20
2023-01-29T04:26:21.923Z,96060.60
2023-01-29T04:29:13.995Z,96063.20
2023-01-29T04:32:20.477Z,96062.80
2023-01-29T04:35:05.785Z,96060.80
2023-01-29T04:38:00.652Z,96061.60
2023-01-29T04:40:51.167Z,96057.80
2023-01-29T04:44:00.362Z,96062.80
2023-01-29T04:46:35.381Z,96068.00
2023-01-29T04:49:35.496Z,96066.80
2023-01-29T04:52:16.225Z,96068.00
2023-01-29T04:55:06.708Z,96065.00
2023-01-29T04:58:08.177Z,96058.20
2023-01-29T05:00:42.143Z,96057.20
2023-01-29T05:03:12.065Z,96056.40
2023-01-29T05:05:43.039Z,96052.40
2023-01-29T05:08:13.839Z,96053.80
2023-01-29T05:10:40.393Z,96065.20
2023-01-29T05:13:12.309Z,96067.60
2023-01-29T05:15:50.831Z,96073.20
2023-01-29T05:18:17.552Z,96075.60
2023-01-29T05:20:44.627Z,96074.00
2023-01-29T05:23:17.636Z,96072.40
2023-01-29T05:25:45.605Z,96076.00
2023-01-29T05:28:18.578Z,96081.40
2023-01-29T05:30:48.622Z,96086.40
2023-01-29T05:33:31.417Z,96093.60
2023-01-29T05:36:01.091Z,96096.80
2023-01-29T05:38:27.937Z,96103.80
2023-01-29T05:40:54.837Z,96104.00
2023-01-29T05:43:24.795Z,96105.60
2023-01-29T05:45:58.129Z,96105.60
2023-01-29T05:48:29.069Z,96103.20
2023-01-29T05:51:01.800Z,96101.00
2023-01-29T05:53:32.948Z,96107.20
2023-01-29T05:56:04.222Z,96111.80
2023-01-29T05:58:33.152Z,96110.80
2023-01-29T06:01:12.027Z,96105.40
2023-01-29T06:03:38.723Z,96106.00
2023-01-29T06:06:05.758Z,96101.60
2023-01-29T06:08:32.376Z,96106.60
2023-01-29T06:10:59.161Z,96108.60
2023-01-29T06:13:25.918Z,96111.00
2023-01-29T06:15:52.582Z,96100.60
2023-01-29T06:18:19.251Z,96099.60
2023-01-29T06:20:45.819Z,96099.80
2023-01-29T06:23:12.390Z,96093.40
2023-01-29T06:25:39.035Z,96095.00
2023-01-29T06:28:05.700Z,96098.00
2023-01-29T06:30:32.453Z,96102.20
2023-01-29T06:33:01.564Z,96105.40
2023-01-29T06:35:28.382Z,96104.20
2023-01-29T06:37:56.620Z,96108.00
2023-01-29T06:40:23.232Z,96110.20
2023-01-29T06:42:49.805Z,96112.80
2023-01-29T06:45:16.552Z,96116.60
2023-01-29T06:47:43.268Z,96115.20
2023-01-29T06:50:11.585Z,96114.80
2023-01-29T06:52:38.211Z,96117.00
2023-01-29T06:55:05.556Z,96118.60
2023-01-29T06:57:32.143Z,96112.20
2023-01-29T06:59:59.670Z,96113.00
2023-01-29T07:02:26.374Z,96114.00
2023-01-29T07:04:52.959Z,96108.40
2023-01-29T07:07:19.580Z,96105.80
2023-01-29T07:09:46.204Z,96112.80
2023-01-29T07:12:12.748Z,96110.60
2023-01-29T07:14:39.316Z,96105.40
2023-01-29T07:17:05.924Z,96103.40
2023-01-29T07:19:32.578Z,96102.20
2023-01-29T07:22:02.360Z,96095.80
2023-01-29T07:24:29.118Z,96089.60
2023-01-29T07:26:55.908Z,96085.60
2023-01-29T07:29:22.593Z,96087.20
2023-01-29T07:31:49.329Z,96090.60
2023-01-29T07:34:16.028Z,96088.60
2023-01-29T07:36:42.676Z,96082.80
2023-01-29T07:39:09.269Z,96082.60
2023-01-29T07:41:35.843Z,96078.60
2023-01-29T07:44:07.999Z,96082.00
2023-01-29T07:46:34.538Z,96076.20
2023-01-29T07:49:01.297Z,96076.00
2023-01-29T07:51:27.890Z,96076.40
2023-01-29T07:53:54.518Z,96071.80
2023-01-29T07:56:21.135Z,96066.80
2023-01-29T07:58:47.854Z,96067.40
2023-01-29T08:01:14.832Z,96070.80
2023-01-29T08:03:41.553Z,96068.80
2023-01-29T08:06:08.282Z,96070.80
2023-01-29T08:08:34.924Z,96077.20
2023-01-29T08:11:05.649Z,96073.80
2023-01-29T08:13:33.393Z,96065.20
2023-01-29T08:16:02.600Z,96063.40
2023-01-29T08:18:31.583Z,96074.60
2023-01-29T08:21:02.352Z,96073.40
2023-01-29T08:23:29.498Z,96072.00
2023-01-29T08:25:56.139Z,96072.80
2023-01-29T08:28:22.833Z,96075.00
2023-01-29T08:30:49.600Z,96081.80
2023-01-29T08:33:17.604Z,96088.00
2023-01-29T08:35:51.420Z,96084.00
2023-01-29T08:38:18.445Z,96084.60
2023-01-29T08:40:45.231Z,96088.60
2023-01-29T08:43:13.504Z,96094.40
2023-01-29T08:45:43.242Z,96094.80
2023-01-29T08:48:10.991Z,96105.80
2023-01-29T08:50:38.360Z,96109.40
2023-01-29T08:53:08.157Z,96112.20
2023-01-29T08:55:46.294Z,96116.80
2023-01-29T08:58:12.871Z,96119.00
2023-01-29T09:00:39.573Z,96113.80
2023-01-29T09:03:07.896Z,96120.60
2023-01-29T09:05:39.999Z,96124.60
2023-01-29T09:08:08.342Z,96124.40
2023-01-29T09:10:36.097Z,96123.00
2023-01-29T09:13:02.685Z,96124.40
2023-01-29T09:15:29.461Z,96128.60
2023-01-29T09:17:56.078Z,96138.20
2023-01-29T09:20:22.682Z,96141.00
2023-01-29T09:22:50.740Z,96143.80
2023-01-29T09:25:17.828Z,96146.80
2023-01-29T09:27:44.630Z,96151.20
2023-01-29T09:30:11.978Z,96151.20
2023-01-29T09:32:54.762Z,96155.20
2023-01-29T09:35:23.458Z,96150.80
2023-01-29T09:37:51.498Z,96150.20
2023-01-29T09:40:32.721Z,96151.40
2023-01-29T09:43:10.353Z,96153.20
2023-01-29T09:45:45.994Z,96156.40
2023-01-29T09:48:14.693Z,96164.20
2023-01-29T09:50:47.602Z,96167.60
2023-01-29T09:53:26.222Z,96169.00
2023-01-29T09:56:05.553Z,96172.60
2023-01-29T09:58:40.581Z,96166.40
2023-01-29T10:01:30.994Z,96165.20
2023-01-29T10:04:39.446Z,96164.80
2023-01-29T10:07:47.233Z,96155.80
2023-01-29T10:10:18.989Z,96155.00
2023-01-29T10:13:20.256Z,96153.20
2023-01-29T10:15:58.647Z,96162.40
2023-01-29T10:19:03.248Z,96162.20
2023-01-29T10:21:48.938Z,96152.40
2023-01-29T10:24:52.628Z,96148.40
2023-01-29T10:27:20.153Z,96149.40
2023-01-29T10:29:51.146Z,96146.60
2023-01-29T10:32:25.533Z,96146.80
2023-01-29T10:35:29.276Z,96150.20
2023-01-29T10:38:09.149Z,96143.00
2023-01-29T10:40:50.870Z,96144.60
2023-01-29T10:43:29.820Z,96141.00
2023-01-29T10:46:09.759Z,96143.20
2023-01-29T10:48:56.249Z,96134.60
2023-01-29T10:52:05.919Z,96133.40
2023-01-29T10:55:16.147Z,96131.00
2023-01-29T10:58:46.788Z,96135.80
2023-01-29T11:01:14.164Z,96132.80
2023-01-29T11:03:40.803Z,96130.60
2023-01-29T11:06:25.328Z,96130.40
2023-01-29T11:09:29.556Z,96124.20
2023-01-29T11:12:06.086Z,96120.20
2023-01-29T11:14:47.771Z,96122.20
2023-01-29T11:17:17.487Z,96120.20
2023-01-29T11:19:48.470Z,96118.80
2023-01-29T11:22:22.009Z,96117.00
2023-01-29T11:25:12.586Z,96114.60
2023-01-29T11:28:02.445Z,96115.40
2023-01-29T11:30:40.005Z,96109.00
2023-01-29T11:33:22.138Z,96102.40
2023-01-29T11:35:48.761Z,96104.00
2023-01-29T11:38:29.068Z,96099.80
2023-01-29T11:41:14.428Z,96097.60
2023-01-29T11:43:41.060Z,96101.80
2023-01-29T11:46:14.629Z,96099.20
2023-01-29T11:48:51.676Z,96093.40
2023-01-29T11:51:28.868Z,96095.40
2023-01-29T11:54:00.846Z,96077.80
2023-01-29T11:56:34.422Z,96059.00
2023-01-29T11:59:04.534Z,96043.80
2023-01-29T12:01:41.436Z,96023.60
2023-01-29T12:04:26.673Z,96011.00
2023-01-29T12:06:54.686Z,96003.60
2023-01-29T12:09:28.294Z,96004.60
2023-01-29T12:11:55.345Z,96003.80
2023-01-29T12:14:34.158Z,96007.40
2023-01-29T12:17:14.119Z,96006.60
2023-01-29T12:19:57.671Z,96005.00
2023-01-29T12:23:02.291Z,96007.20
2023-01-29T12:26:11.134Z,96010.00
2023-01-29T12:29:17.445Z,96012.80
2023-01-29T12:31:53.288Z,96016.80
2023-01-29T12:34:34.359Z,96030.40
2023-01-29T12:37:20.202Z,96039.40
2023-01-29T12:39:47.271Z,96032.40
2023-01-29T12:42:22.659Z,96021.80
2023-01-29T12:44:59.855Z,96011.80
2023-01-29T12:47:47.942Z,96007.80
2023-01-29T12:50:21.692Z,96007.40
2023-01-29T12:52:57.397Z,96002.60
2023-01-29T12:55:34.964Z,95998.20
2023-01-29T12:58:06.244Z,95999.20
2023-01-29T13:00:38.788Z,95991.40
2023-01-29T13:03:33.070Z,95989.80
2023-01-29T13:06:21.047Z,95982.40
2023-01-29T13:09:15.176Z,95971.80
2023-01-29T13:11:54.416Z,95960.40
2023-01-29T13:14:44.410Z,95956.40
2023-01-29T13:17:28.205Z,95948.20
2023-01-29T13:20:02.269Z,95950.20
2023-01-29T13:22:35.178Z,95943.80
2023-01-29T13:25:05.466Z,95938.40
2023-01-29T13:27:35.298Z,95937.60
2023-01-29T13:30:02.561Z,95934.60
2023-01-29T13:32:32.238Z,95935.60
2023-01-29T13:35:05.302Z,95941.60
2023-01-29T13:37:42.103Z,95939.40
2023-01-29T13:40:24.257Z,95936.80
2023-01-29T13:42:54.193Z,95937.60
2023-01-29T13:45:41.800Z,95929.40
2023-01-29T13:48:19.300Z,95930.40
2023-01-29T13:50:47.340Z,95923.40
2023-01-29T13:53:41.950Z,95923.60
2023-01-29T13:56:33.618Z,95919.40
2023-01-29T13:59:03.338Z,95923.20
2023-01-29T14:01:48.381Z,95924.00
2023-01-29T14:04:29.564Z,95919.80
2023-01-29T14:06:58.814Z,95917.60
2023-01-29T14:09:37.471Z,95913.20
2023-01-29T14:12:25.052Z,95911.80
2023-01-29T14:15:05.865Z,95910.60
2023-01-29T14:17:32.595Z,95901.40
2023-01-29T14:20:17.994Z,95903.60
2023-01-29T14:22:44.834Z,95901.40
2023-01-29T14:25:19.481Z,95903.60
2023-01-29T14:27:49.923Z,95909.60
2023-01-29T14:30:19.078Z,95911.20
2023-01-29T14:32:54.073Z,95914.20
2023-01-29T14:35:24.719Z,95916.40
2023-01-29T14:37:55.236Z,95922.00
2023-01-29T14:40:28.084Z,95926.80
2023-01-29T14:43:09.596Z,95925.00
2023-01-29T14:45:44.826Z,95932.20
2023-01-29T14:48:11.397Z,95933.20
2023-01-29T14:50:43.627Z,95944.40
2023-01-29T14:53:15.209Z,95949.20
2023-01-29T14:56:23.421Z,95942.40
2023-01-29T14:58:52.910Z,95938.00
2023-01-29T15:01:36.319Z,95939.00
2023-01-29T15:04:12.207Z,95935.00
2023-01-29T15:07:00.639Z,95929.40
2023-01-29T15:09:45.831Z,95928.20
2023-01-29T15:12:32.706Z,95926.60
2023-01-29T15:15:17.635Z,95925.60
2023-01-29T15:18:02.196Z,95921.60
2023-01-29T15:20:38.604Z,95919.80
2023-01-29T15:23:27.237Z,95921.60
2023-01-29T15:26:03.931Z,95920.40
2023-01-29T15:28:33.737Z,95933.00
2023-01-29T15:31:04.546Z,95939.80
2023-01-29T15:33:33.613Z,95940.00
2023-01-29T15:36:07.298Z,95934.80
2023-01-29T15:38:35.241Z,95938.60
2023-01-29T15:41:20.704Z,95939.60
2023-01-29T15:43:50.469Z,95937.40
2023-01-29T15:46:35.521Z,95935.20
2023-01-29T15:49:09.126Z,95935.60
2023-01-29T15:51:36.074Z,95940.40
2023-01-29T15:54:06.938Z,95943.80
2023-01-29T15:56:40.193Z,95943.20
2023-01-29T15:59:16.928Z,95944.20
2023-01-29T16:01:43.807Z,95942.20
2023-01-29T16:04:17.090Z,95947.60
2023-01-29T16:06:44.091Z,95945.00
2023-01-29T16:09:19.091Z,95941.20
2023-01-29T16:11:47.739Z,95934.80
2023-01-29T16:14:19.171Z,95938.60
2023-01-29T16:16:48.573Z,95941.60
2023-01-29T16:19:23.819Z,95949.60
2023-01-29T16:22:01.133Z,95941.60
2023-01-29T16:24:29.561Z,95944.60
2023-01-29T16:27:03.508Z,95949.60
2023-01-29T16:29:33.205Z,95952.60
2023-01-29T16:32:02.693Z,95959.40
2023-01-29T16:34:36.086Z,95961.00
2023-01-29T16:37:07.450Z,95958.20
2023-01-29T16:39:39.323Z,95961.20
2023-01-29T16:42:19.985Z,95964.00
2023-01-29T16:45:00.457Z,95963.40
2023-01-29T16:47:36.086Z,95969.20
2023-01-29T16:50:17.801Z,95966.60
2023-01-29T16:53:02.933Z,95974.00
2023-01-29T16:55:41.355Z,95979.40
2023-01-29T16:58:25.287Z,95984.20
2023-01-29T17:01:01.224Z,95991.80
2023-01-29T17:03:30.941Z,95990.20
2023-01-29T17:05:57.869Z,95992.60
2023-01-29T17:08:33.467Z,95992.00
2023-01-29T17:11:01.183Z,95994.20
2023-01-29T17:13:44.149Z,95992.00
2023-01-29T17:16:27.680Z,95995.40
2023-01-29T17:18:54.681Z,95997.80
2023-01-29T17:21:21.339Z,95997.40
2023-01-29T17:23:48.012Z,95999.00
2023-01-29T17:26:15.604Z,95997.60
2023-01-29T17:28:42.965Z,96000.20
2023-01-29T17:31:10.361Z,95996.00
2023-01-29T17:33:42.078Z,95998.60
2023-01-29T17:36:14.832Z,95999.40
2023-01-29T17:38:41.639Z,95995.00
2023-01-29T17:41:21.541Z,95994.60
2023-01-29T17:43:48.127Z,95991.40
2023-01-29T17:46:17.126Z,95990.60
2023-01-29T17:48:44.783Z,95993.60
2023-01-29T17:51:17.300Z,95998.80
2023-01-29T17:53:46.904Z,95997.00
2023-01-29T17:56:21.741Z,95994.80
2023-01-29T17:58:48.381Z,95993.80
2023-01-29T18:01:15.948Z,95996.60
2023-01-29T18:03:42.684Z,95999.60
2023-01-29T18:06:10.324Z,95997.00
2023-01-29T18:08:38.797Z,95996.60
2023-01-29T18:11:06.294Z,95993.80
2023-01-29T18:13:35.444Z,95985.80
2023-01-29T18:16:02.453Z,95984.60
2023-01-29T18:18:29.104Z,95985.40
2023-01-29T18:20:55.642Z,95989.20
2023-01-29T18:23:22.422Z,95987.00
2023-01-29T18:25:49.113Z,95987.00
2023-01-29T18:28:17.738Z,95986.80
2023-01-29T18:30:47.246Z,95985.00
2023-01-29T18:33:15.743Z,95984.60
2023-01-29T18:35:50.094Z,95984.20
2023-01-29T18:38:17.692Z,95978.20
2023-01-29T18:40:44.432Z,95971.60
2023-01-29T18:43:11.038Z,95972.20
2023-01-29T18:45:37.679Z,95971.60
2023-01-29T18:48:05.163Z,95979.00
2023-01-29T18:50:32.113Z,95981.20
2023-01-29T18:52:58.787Z,95982.80
2023-01-29T18:55:28.389Z,95984.80
2023-01-29T18:58:26.084Z,95986.60
2023-01-29T19:00:43.846Z,95982.80
2023-01-29T19:03:10.955Z,95977.40
2023-01-29T19:05:37.744Z,95974.80
2023-01-29T19:08:05.393Z,95973.60
2023-01-29T19:10:33.154Z,95977.80
2023-01-29T19:12:59.891Z,95981.00
2023-01-29T19:15:26.720Z,95979.40
2023-01-29T19:17:53.983Z,95980.40
2023-01-29T19:20:20.870Z,95979.00
2023-01-29T19:22:48.545Z,95980.80
2023-01-29T19:25:16.148Z,95977.40
2023-01-29T19:27:43.221Z,95973.00
2023-01-29T19:30:12.704Z,95974.00
2023-01-29T19:32:40.772Z,95972.80
2023-01-29T19:35:07.741Z,95976.40
2023-01-29T19:37:34.380Z,95976.60
2023-01-29T19:40:01.068Z,95972.80
2023-01-29T19:42:28.225Z,95975.60
2023-01-29T19:44:54.893Z,95977.40
2023-01-29T19:47:21.607Z,95975.60
2023-01-29T19:49:48.220Z,95962.40
2023-01-29T19:52:41.384Z,95961.80
2023-01-29T19:55:16.609Z,95958.60
2023-01-29T19:57:43.504Z,95963.60
2023-01-29T20:00:12.106Z,95959.40
2023-01-29T20:02:38.855Z,95959.20
2023-01-29T20:05:07.893Z,95960.40
2023-01-29T20:07:35.986Z,95957.20
2023-01-29T20:10:02.742Z,95955.40
2023-01-29T20:12:29.977Z,95954.00
2023-01-29T20:14:56.700Z,95954.60
2023-01-29T20:17:23.683Z,95952.00
2023-01-29T20:19:50.258Z,95952.40
2023-01-29T20:22:16.932Z,95953.60
2023-01-29T20:24:43.698Z,95951.80
2023-01-29T20:27:10.804Z,95954.40
2023-01-29T20:29:40.447Z,95949.60
2023-01-29T20:32:08.986Z,95953.60
2023-01-29T20:34:36.380Z,95953.40
2023-01-29T20:37:03.227Z,95953.80
2023-01-29T20:39:30.068Z,95956.80
2023-01-29T20:41:57.332Z,95954.40
2023-01-29T20:44:25.684Z,95957.20
2023-01-29T20:46:52.590Z,95954.20
2023-01-29T20:49:19.408Z,95951.00
2023-01-29T20:51:46.179Z,95945.40
2023-01-29T20:54:12.984Z,95945.60
2023-01-29T20:56:42.930Z,95937.60
2023-01-29T20:59:11.373Z,95927.00
2023-01-29T21:01:38.049Z,95929.00
2023-01-29T21:04:04.753Z,95927.40
2023-01-29T21:06:31.479Z,95928.40
2023-01-29T21:08:58.092Z,95926.00
2023-01-29T21:11:24.823Z,95929.20
2023-01-29T21:13:54.828Z,95928.60
2023-01-29T21:16:21.453Z,95929.40
2023-01-29T21:18:48.155Z,95931.00
2023-01-29T21:21:14.771Z,95929.00
2023-01-29T21:23:41.641Z,95930.20
2023-01-29T21:26:08.909Z,95931.80
2023-01-29T21:28:35.738Z,95930.60
2023-01-29T21:31:14.397Z,95923.60
2023-01-29T21:33:41.069Z,95932.20
2023-01-29T21:36:10.001Z,95936.00
2023-01-29T21:38:37.004Z,95936.40
2023-01-29T21:41:08.192Z,95939.60
2023-01-29T21:43:35.495Z,95938.60
2023-01-29T21:46:11.408Z,95933.00
2023-01-29T21:48:39.613Z,95931.80
2023-01-29T21:51:06.991Z,95937.60
2023-01-29T21:53:34.676Z,95932.60
2023-01-29T21:56:03.753Z,95931.60
2023-01-29T21:58:30.860Z,95928.60
2023-01-29T22:01:36.976Z,95931.00
2023-01-29T22:03:47.060Z,95923.80
2023-01-29T22:06:14.267Z,95923.20
2023-01-29T22:08:40.879Z,95920.40
2023-01-29T22:11:08.197Z,95918.80
2023-01-29T22:13:35.150Z,95918.40
2023-01-29T22:16:02.494Z,95922.00
2023-01-29T22:18:29.287Z,95916.40
2023-01-29T22:20:56.999Z,95916.00
2023-01-29T22:23:24.201Z,95914.00
2023-01-29T22:25:50.757Z,95914.00
2023-01-29T22:28:18.437Z,95909.60
2023-01-29T22:30:45.222Z,95913.40
2023-01-29T22:33:12.263Z,95909.20
2023-01-29T22:35:38.834Z,95903.00
2023-01-29T22:38:05.439Z,95901.40
2023-01-29T22:40:32.015Z,95896.60
2023-01-29T22:42:58.738Z,95888.60
2023-01-29T22:45:25.630Z,95880.20
2023-01-29T22:47:52.281Z,95876.80
2023-01-29T22:50:19.349Z,95872.00
2023-01-29T22:52:54.131Z,95869.40
2023-01-29T22:55:21.086Z,95867.20
2023-01-29T22:57:51.000Z,95867.80
2023-01-29T23:00:18.701Z,95855.40
2023-01-29T23:02:49.127Z,95847.60
2023-01-29T23:05:17.286Z,95841.00
2023-01-29T23:07:44.766Z,95842.40
2023-01-29T23:10:16.317Z,95839.20
2023-01-29T23:12:43.253Z,95833.40
2023-01-29T23:15:09.988Z,95833.00
2023-01-29T23:17:36.972Z,95830.20
2023-01-29T23:20:03.933Z,95835.40
2023-01-29T23:22:30.504Z,95836.80
2023-01-29T23:24:57.044Z,95829.40
2023-01-29T23:27:23.959Z,95829.00
2023-01-29T23:29:50.537Z,95824.60
2023-01-29T23:32:21.286Z,95826.40
2023-01-29T23:34:47.938Z,95821.40
2023-01-29T23:37:14.674Z,95817.80
2023-01-29T23:39:41.378Z,95818.60
2023-01-29T23:42:08.219Z,95816.60
2023-01-29T23:44:35.709Z,95818.80
2023-01-29T23:47:02.323Z,95815.20
2023-01-29T23:49:28.965Z,95811.20
2023-01-29T23:51:55.547Z,95811.20
2023-01-29T23:54:22.169Z,95809.40
2023-01-29T23:56:48.813Z,95809.20
2023-01-29T23:59:16.162Z,95806.00
